Time;durP1;ratioP1;P1;durP2;ratioP2;P2;SDS_P1;SDS_P2;PMS_P1;PMS_P2;Temp;Humidity;BMP_temperature;BMP_pressure;BME280_temperature;BME280_humidity;BME280_pressure;Samples;Min_cycle;Max_cycle;Signal;HPM_P1;HPM_P2
2022/08/30 00:03:21;;;;;;;10.27;3.78;;;16.60;99.90;;;;;;5073253;28;20527;-68
2022/08/30 00:05:47;;;;;;;9.45;3.35;;;16.60;99.90;;;;;;5074047;28;20104;-66
2022/08/30 00:08:13;;;;;;;8.93;3.03;;;16.50;99.90;;;;;;5074330;28;20127;-70
2022/08/30 00:10:40;;;;;;;6.93;3.78;;;16.50;99.90;;;;;;5074385;28;20020;-66
2022/08/30 00:13:06;;;;;;;8.50;3.20;;;16.50;99.90;;;;;;5072690;28;20443;-66
2022/08/30 00:15:32;;;;;;;8.35;4.00;;;16.50;99.90;;;;;;5073807;28;20022;-67
2022/08/30 00:17:58;;;;;;;9.35;4.03;;;16.50;99.90;;;;;;5072818;28;20806;-67
2022/08/30 00:20:27;;;;;;;12.23;3.80;;;16.50;99.90;;;;;;5074111;28;20029;-67
2022/08/30 00:22:53;;;;;;;9.02;3.97;;;16.50;99.90;;;;;;5071662;28;20099;-69
2022/08/30 00:25:19;;;;;;;8.52;3.50;;;16.50;99.90;;;;;;5074115;28;20116;-68
2022/08/30 00:27:45;;;;;;;13.70;4.28;;;16.50;99.90;;;;;;5073551;28;20371;-70
2022/08/30 00:30:13;;;;;;;10.45;4.43;;;16.50;99.90;;;;;;5073685;28;20099;-68
2022/08/30 00:32:39;;;;;;;8.68;3.97;;;16.50;99.90;;;;;;5071115;28;20031;-72
2022/08/30 00:35:07;;;;;;;9.05;3.97;;;16.50;99.90;;;;;;5072511;28;20040;-67
2022/08/30 00:37:33;;;;;;;10.98;4.00;;;16.50;99.90;;;;;;5073562;28;20055;-68
2022/08/30 00:39:59;;;;;;;9.70;3.83;;;16.40;99.90;;;;;;5073449;28;20025;-65
2022/08/30 00:42:25;;;;;;;9.48;4.47;;;16.50;99.90;;;;;;5073290;28;20456;-70
2022/08/30 00:44:52;;;;;;;9.15;4.32;;;16.40;99.90;;;;;;5073790;28;20021;-68
2022/08/30 00:47:18;;;;;;;12.07;4.10;;;16.40;99.90;;;;;;5072646;28;20103;-69
2022/08/30 00:49:48;;;;;;;13.18;4.38;;;16.40;99.90;;;;;;5071862;28;20021;-67
2022/08/30 00:52:14;;;;;;;10.32;4.35;;;16.40;99.90;;;;;;5073383;28;20024;-67
2022/08/30 00:54:44;;;;;;;11.75;4.47;;;16.40;99.90;;;;;;5074156;28;20033;-70
2022/08/30 00:57:12;;;;;;;12.93;5.25;;;16.30;99.90;;;;;;5072117;28;20016;-67
2022/08/30 00:59:38;;;;;;;12.13;4.70;;;16.40;99.90;;;;;;5073594;28;20044;-68
2022/08/30 01:02:04;;;;;;;14.02;4.47;;;16.40;99.90;;;;;;5072968;28;20032;-71
2022/08/30 01:04:32;;;;;;;9.30;4.45;;;16.40;99.90;;;;;;5072878;28;20128;-67
2022/08/30 01:06:58;;;;;;;14.80;5.10;;;16.30;99.90;;;;;;5074677;28;20016;-67
2022/08/30 01:09:23;;;;;;;8.75;4.30;;;16.30;99.90;;;;;;5074372;28;20070;-67
2022/08/30 01:11:49;;;;;;;9.23;4.80;;;16.30;99.90;;;;;;5073497;28;20021;-67
2022/08/30 01:14:16;;;;;;;11.07;5.22;;;16.20;99.90;;;;;;5074111;28;20025;-67
2022/08/30 01:16:43;;;;;;;13.07;4.88;;;16.30;99.90;;;;;;5074329;28;20021;-67
2022/08/30 01:19:22;;;;;;;14.27;5.40;;;16.30;99.90;;;;;;5074027;28;20094;-67
2022/08/30 01:21:53;;;;;;;15.95;5.38;;;16.20;99.90;;;;;;5074141;28;20072;-67
2022/08/30 01:24:19;;;;;;;13.23;5.28;;;16.30;99.90;;;;;;5073712;28;20115;-70
2022/08/30 01:26:45;;;;;;;11.30;5.13;;;16.20;99.90;;;;;;5073871;28;20375;-69
2022/08/30 01:29:15;;;;;;;16.98;5.97;;;16.20;99.90;;;;;;5072726;28;20024;-72
2022/08/30 01:31:41;;;;;;;11.48;5.47;;;16.20;99.90;;;;;;5073971;28;20097;-67
2022/08/30 01:34:07;;;;;;;15.82;5.97;;;16.20;99.90;;;;;;5064669;28;20086;-67
2022/08/30 01:36:37;;;;;;;13.85;5.82;;;16.20;99.90;;;;;;5053622;28;20083;-67
2022/08/30 01:39:03;;;;;;;15.13;5.82;;;16.20;99.90;;;;;;5053719;28;20029;-67
2022/08/30 01:41:33;;;;;;;14.45;5.90;;;16.10;99.90;;;;;;5053349;28;20459;-66
2022/08/30 01:44:01;;;;;;;13.18;6.15;;;16.20;99.90;;;;;;5052234;28;20055;-67
2022/08/30 01:46:34;;;;;;;12.65;6.57;;;16.10;99.90;;;;;;5053408;28;20490;-68
2022/08/30 01:49:02;;;;;;;13.35;7.07;;;16.10;99.90;;;;;;5053700;28;20032;-68
2022/08/30 01:51:28;;;;;;;12.05;6.18;;;16.10;99.90;;;;;;5053376;28;20052;-68
2022/08/30 01:53:54;;;;;;;16.83;6.93;;;16.10;99.90;;;;;;5053827;28;20087;-68
2022/08/30 01:56:21;;;;;;;11.95;7.05;;;16.10;99.90;;;;;;5062681;28;20426;-68
2022/08/30 01:58:47;;;;;;;17.52;7.18;;;16.10;99.90;;;;;;5072459;28;20421;-69
2022/08/30 02:01:16;;;;;;;16.30;7.35;;;16.10;99.90;;;;;;5072133;28;20052;-70
2022/08/30 02:03:43;;;;;;;15.70;7.15;;;16.10;99.90;;;;;;5071979;28;20029;-69
2022/08/30 02:06:12;;;;;;;15.63;7.50;;;16.20;99.90;;;;;;5069298;28;20127;-70
2022/08/30 02:08:41;;;;;;;14.43;7.38;;;16.10;99.90;;;;;;5071727;28;20379;-71
2022/08/30 02:11:08;;;;;;;16.02;7.88;;;16.10;99.90;;;;;;5071854;28;20040;-65
2022/08/30 02:13:36;;;;;;;21.63;8.75;;;16.10;99.90;;;;;;5072038;28;20027;-70
2022/08/30 02:16:02;;;;;;;18.73;8.55;;;16.10;99.90;;;;;;5069742;28;20027;-70
2022/08/30 02:18:28;;;;;;;18.85;8.50;;;16.10;99.90;;;;;;5069017;28;20104;-66
2022/08/30 02:20:54;;;;;;;17.80;8.23;;;16.20;99.90;;;;;;5071486;28;20095;-67
2022/08/30 02:23:19;;;;;;;18.83;8.95;;;16.20;99.90;;;;;;5070859;28;20064;-66
2022/08/30 02:25:45;;;;;;;18.00;9.38;;;16.20;99.90;;;;;;5071740;28;20082;-68
2022/08/30 02:28:13;;;;;;;17.60;9.75;;;16.20;99.90;;;;;;5071536;28;20104;-69
2022/08/30 02:30:39;;;;;;;17.58;8.63;;;16.20;99.90;;;;;;5071208;28;20537;-68
2022/08/30 02:33:04;;;;;;;20.00;9.45;;;16.20;99.90;;;;;;5069774;28;20389;-68
2022/08/30 02:35:30;;;;;;;16.90;8.52;;;16.20;99.90;;;;;;5071353;28;20028;-67
2022/08/30 02:37:56;;;;;;;19.83;9.23;;;16.20;99.90;;;;;;5070153;28;20016;-68
2022/08/30 02:40:21;;;;;;;18.30;9.30;;;16.10;99.90;;;;;;5071315;28;20020;-66
2022/08/30 02:42:48;;;;;;;17.48;8.93;;;16.20;99.90;;;;;;5071190;28;20040;-67
2022/08/30 02:45:14;;;;;;;17.83;8.88;;;16.10;99.90;;;;;;5071323;28;20458;-67
2022/08/30 02:47:40;;;;;;;18.05;9.07;;;16.20;99.90;;;;;;5071026;28;20021;-68
2022/08/30 02:50:07;;;;;;;19.25;9.48;;;16.10;99.90;;;;;;5069883;28;20017;-67
2022/08/30 02:52:33;;;;;;;16.58;9.32;;;16.10;99.90;;;;;;5071173;28;20510;-66
2022/08/30 02:54:58;;;;;;;16.35;9.00;;;16.00;99.90;;;;;;5071168;28;20100;-67
2022/08/30 02:57:24;;;;;;;18.17;9.35;;;16.00;99.90;;;;;;5071433;28;20423;-65
2022/08/30 02:59:50;;;;;;;20.23;9.40;;;16.00;99.90;;;;;;5072284;28;20436;-69
2022/08/30 03:02:16;;;;;;;17.90;8.82;;;16.00;99.90;;;;;;5072034;28;20075;-69
2022/08/30 03:04:43;;;;;;;16.27;8.77;;;16.00;99.90;;;;;;5072224;28;20073;-67
2022/08/30 03:07:11;;;;;;;20.15;9.15;;;15.90;99.90;;;;;;5072455;28;20023;-67
2022/08/30 03:09:37;;;;;;;16.83;8.93;;;15.90;99.90;;;;;;5070980;28;20016;-67
2022/08/30 03:12:04;;;;;;;19.42;9.63;;;15.90;99.90;;;;;;5072437;28;20020;-67
2022/08/30 03:14:30;;;;;;;15.85;8.20;;;15.80;99.90;;;;;;5072190;28;20043;-66
2022/08/30 03:16:57;;;;;;;20.35;9.20;;;15.80;99.90;;;;;;5072492;28;20024;-69
2022/08/30 03:19:23;;;;;;;22.27;9.20;;;15.70;99.90;;;;;;5070976;28;20070;-72
2022/08/30 03:21:49;;;;;;;19.95;9.02;;;15.70;99.90;;;;;;5070874;28;20400;-68
2022/08/30 03:24:15;;;;;;;17.80;9.07;;;15.70;99.90;;;;;;5072247;28;20036;-67
2022/08/30 03:26:40;;;;;;;17.13;9.35;;;15.70;99.90;;;;;;5072355;28;20025;-66
2022/08/30 03:29:06;;;;;;;16.83;8.85;;;15.60;99.90;;;;;;5072252;28;20450;-67
2022/08/30 03:31:31;;;;;;;16.60;9.27;;;15.60;99.90;;;;;;5071949;28;20031;-68
2022/08/30 03:33:57;;;;;;;17.67;9.15;;;15.50;99.90;;;;;;5072012;28;20055;-67
2022/08/30 03:36:22;;;;;;;19.02;9.18;;;15.60;99.90;;;;;;5071991;28;20064;-68
2022/08/30 03:38:48;;;;;;;20.15;9.50;;;15.50;99.90;;;;;;5072420;28;20129;-67
2022/08/30 03:41:16;;;;;;;19.75;9.35;;;15.50;99.90;;;;;;5070560;28;20125;-68
2022/08/30 03:43:42;;;;;;;18.60;8.70;;;15.40;99.90;;;;;;5071955;28;20036;-67
2022/08/30 03:46:08;;;;;;;22.92;10.85;;;15.50;99.90;;;;;;5070721;28;20044;-67
2022/08/30 03:48:33;;;;;;;16.70;8.82;;;15.40;99.90;;;;;;5072005;28;20052;-67
2022/08/30 03:50:59;;;;;;;18.05;9.05;;;15.40;99.90;;;;;;5070583;28;20016;-67
2022/08/30 03:53:24;;;;;;;20.55;9.32;;;15.40;99.90;;;;;;5072041;28;20033;-69
2022/08/30 03:55:50;;;;;;;21.15;11.10;;;15.30;99.90;;;;;;5071811;28;20024;-67
2022/08/30 03:58:15;;;;;;;19.77;9.50;;;15.40;99.90;;;;;;5071203;28;20024;-67
2022/08/30 04:00:41;;;;;;;19.90;10.20;;;15.30;99.90;;;;;;5071500;28;20056;-69
2022/08/30 04:03:07;;;;;;;19.02;10.38;;;15.30;99.90;;;;;;5071912;28;20036;-68
2022/08/30 04:05:33;;;;;;;20.67;10.57;;;15.30;99.90;;;;;;5071836;28;20016;-67
2022/08/30 04:07:59;;;;;;;21.15;10.80;;;15.30;99.90;;;;;;5070355;28;20057;-70
2022/08/30 04:10:25;;;;;;;20.50;10.30;;;15.30;99.90;;;;;;5071450;28;20017;-66
2022/08/30 04:12:50;;;;;;;19.73;9.90;;;15.30;99.90;;;;;;5071810;28;20026;-66
2022/08/30 04:15:18;;;;;;;21.90;10.25;;;15.30;99.90;;;;;;5072240;28;20107;-66
2022/08/30 04:17:43;;;;;;;20.65;10.18;;;15.30;99.90;;;;;;5071673;28;20020;-68
2022/08/30 04:20:10;;;;;;;17.60;9.63;;;15.30;99.90;;;;;;5071646;28;20066;-67
2022/08/30 04:22:35;;;;;;;19.60;9.80;;;15.30;99.90;;;;;;5071538;28;20473;-68
2022/08/30 04:25:02;;;;;;;22.10;10.43;;;15.30;99.90;;;;;;5071715;28;20021;-67
2022/08/30 04:27:28;;;;;;;19.92;10.68;;;15.30;99.90;;;;;;5071349;28;20021;-67
2022/08/30 04:29:55;;;;;;;25.23;11.07;;;15.30;99.90;;;;;;5071478;28;20025;-67
2022/08/30 04:32:21;;;;;;;20.15;11.25;;;15.30;99.90;;;;;;5071688;28;20013;-67
2022/08/30 04:34:46;;;;;;;19.70;10.65;;;15.30;99.90;;;;;;5071466;28;20186;-67
2022/08/30 04:37:12;;;;;;;19.85;11.15;;;15.30;99.90;;;;;;5071969;28;20020;-67
2022/08/30 04:39:38;;;;;;;20.98;10.95;;;15.30;99.90;;;;;;5072796;28;20042;-70
2022/08/30 04:42:04;;;;;;;24.40;10.93;;;15.30;99.90;;;;;;5075204;28;20508;-68
2022/08/30 04:44:31;;;;;;;19.83;11.00;;;15.20;99.90;;;;;;5074747;28;20782;-67
2022/08/30 04:46:57;;;;;;;26.23;11.68;;;15.20;99.90;;;;;;5074825;28;20074;-71
2022/08/30 04:49:23;;;;;;;19.63;11.27;;;15.20;99.90;;;;;;5075040;28;20116;-66
2022/08/30 04:51:49;;;;;;;24.30;12.23;;;15.30;99.90;;;;;;5073483;28;20059;-68
2022/08/30 04:54:14;;;;;;;22.80;12.43;;;15.30;99.90;;;;;;5073159;28;20021;-67
2022/08/30 04:56:40;;;;;;;23.50;12.50;;;15.30;99.90;;;;;;5074494;28;20024;-68
2022/08/30 04:59:05;;;;;;;21.98;12.18;;;15.30;99.90;;;;;;5074653;28;20074;-69
2022/08/30 05:01:32;;;;;;;24.77;12.38;;;15.30;99.90;;;;;;5074897;28;20041;-67
2022/08/30 05:03:58;;;;;;;22.27;11.35;;;15.40;99.90;;;;;;5074674;28;20082;-72
2022/08/30 05:06:26;;;;;;;20.35;11.77;;;15.40;99.90;;;;;;5075247;28;20029;-67
2022/08/30 05:08:52;;;;;;;21.35;10.85;;;15.40;99.90;;;;;;5073306;28;20016;-69
2022/08/30 05:11:19;;;;;;;19.27;10.48;;;15.40;99.90;;;;;;5074514;28;20099;-68
2022/08/30 05:13:45;;;;;;;20.98;11.27;;;15.40;99.90;;;;;;5074760;28;20017;-67
2022/08/30 05:16:16;;;;;;;20.83;10.18;;;15.40;99.90;;;;;;5074555;28;20029;-66
2022/08/30 05:18:46;;;;;;;23.90;11.15;;;15.50;99.90;;;;;;5073458;28;20017;-69
2022/08/30 05:21:15;;;;;;;21.42;11.23;;;15.50;99.90;;;;;;5074783;28;20067;-67
2022/08/30 05:23:42;;;;;;;18.30;11.05;;;15.50;99.90;;;;;;5072759;28;20132;-67
2022/08/30 05:26:14;;;;;;;18.95;10.82;;;15.50;99.90;;;;;;5074468;28;20024;-70
2022/08/30 05:28:39;;;;;;;21.10;10.88;;;15.60;99.90;;;;;;5074103;28;20359;-67
2022/08/30 05:31:18;;;;;;;19.85;9.93;;;15.60;99.90;;;;;;5074038;28;20035;-67
2022/08/30 05:33:44;;;;;;;19.42;9.90;;;15.60;99.90;;;;;;5074065;28;20013;-68
2022/08/30 05:36:12;;;;;;;19.25;10.50;;;15.70;99.90;;;;;;5074413;28;20478;-68
2022/08/30 05:38:38;;;;;;;18.45;9.65;;;15.70;99.90;;;;;;5074123;28;20024;-67
2022/08/30 05:41:04;;;;;;;21.00;10.30;;;15.70;99.90;;;;;;5074425;28;20020;-69
2022/08/30 05:43:30;;;;;;;17.90;9.75;;;15.80;99.90;;;;;;5072765;28;20047;-67
2022/08/30 05:46:05;;;;;;;15.90;9.05;;;15.90;99.90;;;;;;5074255;28;20018;-67
2022/08/30 05:48:31;;;;;;;18.42;9.77;;;15.90;99.90;;;;;;5074243;28;20016;-68
2022/08/30 05:51:15;;;;;;;21.73;10.95;;;15.90;99.90;;;;;;5072859;28;20024;-68
2022/08/30 05:53:41;;;;;;;21.00;10.65;;;16.00;99.90;;;;;;5060317;28;20021;-70
2022/08/30 05:56:09;;;;;;;17.58;9.93;;;16.10;99.90;;;;;;5071965;28;20025;-68
2022/08/30 05:58:35;;;;;;;22.95;10.45;;;16.20;99.90;;;;;;5072101;28;20062;-68
2022/08/30 06:01:01;;;;;;;20.83;10.18;;;16.30;99.90;;;;;;5073601;28;20052;-70
2022/08/30 06:03:27;;;;;;;17.17;9.52;;;16.30;99.90;;;;;;5073269;28;20115;-67
2022/08/30 06:05:53;;;;;;;18.80;9.45;;;16.40;99.90;;;;;;5073700;28;20078;-69
2022/08/30 06:08:20;;;;;;;19.35;9.63;;;16.50;99.90;;;;;;5072239;28;20028;-68
2022/08/30 06:10:45;;;;;;;17.88;9.40;;;16.70;99.90;;;;;;5072127;28;20116;-71
2022/08/30 06:13:13;;;;;;;17.77;9.25;;;16.80;99.90;;;;;;5073532;28;20103;-67
2022/08/30 06:15:39;;;;;;;15.55;8.07;;;16.80;99.90;;;;;;5071833;28;20134;-67
2022/08/30 06:18:05;;;;;;;16.25;7.85;;;17.00;99.90;;;;;;5073408;28;20515;-69
2022/08/30 06:20:31;;;;;;;15.50;7.82;;;17.10;99.90;;;;;;5073050;28;20024;-67
2022/08/30 06:22:56;;;;;;;15.55;7.50;;;17.20;99.90;;;;;;5073210;28;20029;-68
2022/08/30 06:25:22;;;;;;;14.10;7.65;;;17.30;99.90;;;;;;5073126;28;20066;-68
2022/08/30 06:27:48;;;;;;;13.07;7.40;;;17.40;99.90;;;;;;5073115;28;20099;-73
2022/08/30 06:30:14;;;;;;;15.48;6.53;;;17.50;99.90;;;;;;5073220;28;20453;-68
2022/08/30 06:32:39;;;;;;;15.77;7.43;;;17.60;99.90;;;;;;5071432;28;20044;-67
2022/08/30 06:35:06;;;;;;;10.07;6.10;;;17.70;99.90;;;;;;5072904;28;20446;-71
2022/08/30 06:37:32;;;;;;;10.77;6.15;;;17.90;99.90;;;;;;5073185;28;20180;-67
2022/08/30 06:40:00;;;;;;;9.90;5.45;;;18.00;99.90;;;;;;5072580;28;20059;-69
2022/08/30 06:42:30;;;;;;;11.85;5.80;;;18.10;99.90;;;;;;5072800;28;20462;-71
2022/08/30 06:44:57;;;;;;;10.80;5.40;;;18.30;99.90;;;;;;5072492;28;20013;-68
2022/08/30 06:47:22;;;;;;;10.98;5.00;;;18.40;99.90;;;;;;5067994;28;20021;-67
2022/08/30 06:49:48;;;;;;;10.68;4.55;;;18.50;99.90;;;;;;5051362;28;20458;-66
2022/08/30 06:52:14;;;;;;;7.03;4.15;;;18.70;99.90;;;;;;5051316;28;20443;-67
2022/08/30 06:54:39;;;;;;;8.65;3.95;;;18.90;99.90;;;;;;5052458;28;20419;-70
2022/08/30 06:57:05;;;;;;;6.97;3.67;;;19.00;99.90;;;;;;5052943;28;20033;-67
2022/08/30 06:59:31;;;;;;;7.28;3.85;;;19.20;99.90;;;;;;5052160;28;20013;-69
2022/08/30 07:01:57;;;;;;;7.57;3.72;;;19.50;99.90;;;;;;5052379;28;20411;-65
2022/08/30 07:04:23;;;;;;;9.57;2.97;;;19.80;99.90;;;;;;5052280;28;20122;-68
2022/08/30 07:06:49;;;;;;;6.63;3.10;;;20.10;99.90;;;;;;5051169;28;20040;-67
2022/08/30 07:09:14;;;;;;;6.65;3.13;;;20.30;99.90;;;;;;5052267;28;20017;-69
2022/08/30 07:11:40;;;;;;;5.40;2.60;;;20.60;99.90;;;;;;5050872;28;20096;-68
2022/08/30 07:14:07;;;;;;;6.97;2.50;;;20.70;99.90;;;;;;5052507;28;20104;-69
2022/08/30 07:16:33;;;;;;;6.20;2.58;;;20.70;99.90;;;;;;5052707;28;20029;-68
2022/08/30 07:19:00;;;;;;;5.88;2.25;;;20.80;99.90;;;;;;5052022;28;20021;-67
2022/08/30 07:21:30;;;;;;;4.80;2.25;;;20.90;99.90;;;;;;5052203;28;20096;-68
2022/08/30 07:23:57;;;;;;;3.30;2.28;;;20.90;99.90;;;;;;5052021;28;20095;-68
2022/08/30 07:26:33;;;;;;;3.10;2.00;;;21.00;99.90;;;;;;5052460;28;20025;-68
2022/08/30 07:28:59;;;;;;;7.25;1.90;;;21.20;99.90;;;;;;5051837;28;20022;-68
2022/08/30 07:31:25;;;;;;;5.90;2.17;;;21.40;99.90;;;;;;5064850;28;20032;-68
2022/08/30 07:33:51;;;;;;;3.17;1.65;;;21.70;99.90;;;;;;5072258;28;20032;-68
2022/08/30 07:36:18;;;;;;;4.90;2.13;;;21.90;99.90;;;;;;5072128;28;20070;-68
2022/08/30 07:38:44;;;;;;;4.57;1.52;;;22.20;99.90;;;;;;5072121;28;20021;-72
2022/08/30 07:41:24;;;;;;;2.45;1.40;;;22.50;99.90;;;;;;5071601;28;20020;-67
2022/08/30 07:43:50;;;;;;;5.03;1.70;;;22.80;99.30;;;;;;5071992;28;20085;-69
2022/08/30 07:46:16;;;;;;;3.17;1.40;;;23.20;99.00;;;;;;5071881;28;20025;-71
2022/08/30 07:48:43;;;;;;;4.95;1.40;;;23.70;98.80;;;;;;5071672;28;20048;-69
2022/08/30 07:51:11;;;;;;;3.95;1.25;;;24.30;98.10;;;;;;5071559;28;20032;-67
2022/08/30 07:53:37;;;;;;;7.07;1.70;;;24.90;94.70;;;;;;5054768;28;20526;-66
2022/08/30 07:56:03;;;;;;;4.63;1.30;;;25.10;93.10;;;;;;5071708;28;20119;-67
2022/08/30 07:58:28;;;;;;;3.90;1.17;;;25.30;92.50;;;;;;5071609;28;20434;-69
2022/08/30 08:00:58;;;;;;;3.30;1.48;;;25.60;92.00;;;;;;5070486;28;20036;-68
2022/08/30 08:03:27;;;;;;;2.03;1.20;;;26.10;91.80;;;;;;5069650;28;20122;-70
2022/08/30 08:05:53;;;;;;;3.33;1.20;;;26.70;91.40;;;;;;5068205;28;20036;-67
2022/08/30 08:08:20;;;;;;;3.75;1.70;;;27.10;90.70;;;;;;5070845;28;20025;-66
2022/08/30 08:10:45;;;;;;;4.68;1.40;;;27.60;90.10;;;;;;5072117;28;20037;-67
2022/08/30 08:13:11;;;;;;;4.22;1.33;;;28.00;88.50;;;;;;5071661;28;20029;-70
2022/08/30 08:15:37;;;;;;;6.07;1.67;;;28.20;86.90;;;;;;5074832;28;20431;-66
2022/08/30 08:18:04;;;;;;;3.60;1.30;;;28.50;85.50;;;;;;5075726;28;20335;-71
2022/08/30 08:20:30;;;;;;;5.25;1.30;;;28.90;83.70;;;;;;5075572;28;20048;-68
2022/08/30 08:22:56;;;;;;;4.80;1.48;;;29.00;82.60;;;;;;5074827;28;20098;-66
2022/08/30 08:25:22;;;;;;;3.40;0.98;;;29.20;82.00;;;;;;5074784;28;20423;-66
2022/08/30 08:27:49;;;;;;;2.40;1.27;;;29.40;81.00;;;;;;5075398;28;20025;-69
2022/08/30 08:30:16;;;;;;;2.85;1.42;;;29.70;80.80;;;;;;5075124;28;20024;-68
2022/08/30 08:32:43;;;;;;;3.55;1.40;;;29.70;79.20;;;;;;5062309;28;20059;-68
2022/08/30 08:35:10;;;;;;;3.75;1.27;;;29.70;79.00;;;;;;5066203;28;20056;-67
2022/08/30 08:37:36;;;;;;;4.05;1.88;;;29.90;78.10;;;;;;5074630;28;20070;-67
2022/08/30 08:40:03;;;;;;;5.10;1.13;;;30.10;77.30;;;;;;5073423;28;20036;-67
2022/08/30 08:42:35;;;;;;;2.90;1.52;;;30.40;77.20;;;;;;5074903;28;20024;-67
2022/08/30 08:45:22;;;;;;;3.78;1.50;;;30.70;77.00;;;;;;5075417;28;20028;-68
2022/08/30 08:47:50;;;;;;;3.17;1.40;;;31.20;76.40;;;;;;5074889;28;20028;-68
2022/08/30 08:50:19;;;;;;;9.00;1.55;;;31.80;74.30;;;;;;5074862;28;20553;-67
2022/08/30 08:55:52;;;;;;;3.38;1.45;;;31.90;72.80;;;;;;5074583;28;20036;-68
2022/08/30 08:58:26;;;;;;;2.33;1.10;;;31.70;72.00;;;;;;5067596;28;20223;-67
2022/08/30 09:00:55;;;;;;;3.70;1.30;;;31.50;71.30;;;;;;5063630;28;20113;-67
2022/08/30 09:03:25;;;;;;;1.45;1.10;;;31.20;71.10;;;;;;5074711;28;20060;-67
2022/08/30 09:05:52;;;;;;;5.78;1.40;;;30.90;70.80;;;;;;5074348;28;20099;-66
2022/08/30 09:08:19;;;;;;;3.25;1.27;;;30.70;71.80;;;;;;5074594;28;20038;-68
2022/08/30 09:11:03;;;;;;;8.40;1.38;;;30.80;71.90;;;;;;5074454;28;20016;-67
2022/08/30 09:13:28;;;;;;;7.03;2.58;;;30.80;71.60;;;;;;5074782;28;20024;-68
2022/08/30 09:15:56;;;;;;;3.90;1.33;;;30.80;71.70;;;;;;5069390;28;20090;-69
2022/08/30 09:18:46;;;;;;;2.88;1.48;;;31.00;71.40;;;;;;5073490;28;20020;-68
2022/08/30 09:21:14;;;;;;;7.55;1.63;;;31.20;69.80;;;;;;5071424;28;20038;-68
2022/08/30 09:23:48;;;;;;;7.60;1.30;;;31.20;69.70;;;;;;5073566;28;20056;-68
2022/08/30 09:26:25;;;;;;;3.83;1.20;;;31.10;69.70;;;;;;5073650;28;20104;-69
2022/08/30 09:28:52;;;;;;;8.13;2.20;;;31.30;70.00;;;;;;5073386;28;20132;-67
2022/08/30 09:31:20;;;;;;;2.67;1.45;;;31.50;70.10;;;;;;5074273;28;20017;-69
2022/08/30 09:34:03;;;;;;;3.33;1.10;;;31.90;69.90;;;;;;5057279;28;20024;-71
2022/08/30 09:36:39;;;;;;;3.92;1.50;;;31.90;69.60;;;;;;5053623;28;20024;-71
2022/08/30 09:39:17;;;;;;;2.05;1.35;;;31.60;68.40;;;;;;5054144;28;20442;-69
2022/08/30 09:41:47;;;;;;;2.85;1.33;;;31.40;68.00;;;;;;5052090;28;20459;-67
2022/08/30 09:44:20;;;;;;;7.25;1.55;;;31.20;68.30;;;;;;5068048;28;20028;-68
2022/08/30 09:46:52;;;;;;;2.05;1.10;;;31.00;70.00;;;;;;5072687;28;20520;-67
2022/08/30 09:49:39;;;;;;;2.50;1.52;;;31.20;69.20;;;;;;5056183;28;20044;-72
2022/08/30 09:52:44;;;;;;;7.22;1.55;;;31.10;69.10;;;;;;5073948;28;20027;-66
2022/08/30 09:55:28;;;;;;;3.17;1.48;;;30.90;69.00;;;;;;5073636;28;20607;-67
2022/08/30 09:58:13;;;;;;;2.10;1.38;;;30.60;69.10;;;;;;5073059;28;20027;-68
2022/08/30 10:00:55;;;;;;;5.75;1.38;;;30.60;69.20;;;;;;5072878;28;20143;-68
2022/08/30 10:03:26;;;;;;;2.72;1.40;;;30.80;69.10;;;;;;5073169;28;20040;-68
2022/08/30 10:06:19;;;;;;;3.60;1.58;;;30.90;69.10;;;;;;5072186;28;20108;-71
2022/08/30 10:08:45;;;;;;;2.17;1.40;;;31.10;69.60;;;;;;5073637;28;20040;-67
2022/08/30 10:11:27;;;;;;;5.97;1.65;;;31.40;69.00;;;;;;5072621;28;20370;-72
2022/08/30 10:14:23;;;;;;;3.13;1.20;;;31.50;67.80;;;;;;5072888;28;20398;-66
2022/08/30 10:17:12;;;;;;;4.55;1.25;;;31.60;67.50;;;;;;5068290;28;20493;-67
2022/08/30 10:20:09;;;;;;;5.22;1.67;;;31.80;67.00;;;;;;5072439;28;20028;-68
2022/08/30 10:22:37;;;;;;;2.95;1.17;;;32.10;66.30;;;;;;5072817;28;20035;-67
2022/08/30 10:25:11;;;;;;;4.00;2.03;;;32.50;66.20;;;;;;5072855;28;20024;-67
2022/08/30 10:27:56;;;;;;;5.32;1.40;;;32.60;66.00;;;;;;5073512;28;20111;-66
2022/08/30 10:30:22;;;;;;;5.22;1.52;;;32.70;65.70;;;;;;5073167;28;20027;-70
2022/08/30 10:33:05;;;;;;;4.68;1.20;;;32.80;65.80;;;;;;5072904;28;20099;-70
2022/08/30 10:35:40;;;;;;;7.60;1.67;;;33.00;65.10;;;;;;5072229;28;20374;-68
2022/08/30 10:38:28;;;;;;;3.50;1.30;;;32.90;64.50;;;;;;5071784;28;20023;-71
2022/08/30 10:41:18;;;;;;;3.20;1.60;;;32.60;64.60;;;;;;5072703;28;20031;-66
2022/08/30 10:44:02;;;;;;;3.75;1.25;;;32.10;64.70;;;;;;5071989;28;20086;-68
2022/08/30 10:46:46;;;;;;;4.35;1.48;;;32.00;63.00;;;;;;5073029;28;20048;-68
2022/08/30 10:49:18;;;;;;;2.58;1.52;;;31.70;64.00;;;;;;5072472;28;20113;-65
2022/08/30 10:51:58;;;;;;;4.07;1.83;;;31.70;64.90;;;;;;5072713;28;20452;-66
2022/08/30 10:54:38;;;;;;;3.25;1.73;;;31.90;64.70;;;;;;5072559;28;20020;-67
2022/08/30 10:57:04;;;;;;;4.10;1.67;;;32.00;64.10;;;;;;5072599;28;20077;-67
2022/08/30 10:59:31;;;;;;;2.65;1.40;;;32.20;64.40;;;;;;5072173;28;20462;-67
2022/08/30 11:02:22;;;;;;;4.00;1.60;;;32.40;64.50;;;;;;5072148;28;20036;-66
2022/08/30 11:05:20;;;;;;;5.40;1.45;;;32.60;64.80;;;;;;5071541;28;20033;-67
2022/08/30 11:07:49;;;;;;;5.30;1.80;;;32.80;64.30;;;;;;5067361;28;20024;-68
2022/08/30 11:10:35;;;;;;;4.05;1.50;;;32.50;65.20;;;;;;5052462;28;20027;-66
2022/08/30 11:13:13;;;;;;;1.40;1.30;;;32.20;65.20;;;;;;5052241;28;20027;-66
2022/08/30 11:16:04;;;;;;;4.65;1.90;;;31.90;65.70;;;;;;5051704;28;20031;-68
2022/08/30 11:18:40;;;;;;;3.45;1.58;;;31.60;66.50;;;;;;5045310;28;20037;-67
2022/08/30 11:21:20;;;;;;;77.70;50.67;;;31.50;66.50;;;;;;5051938;28;20455;-67
2022/08/30 11:24:21;;;;;;;6.72;2.50;;;31.60;66.40;;;;;;5051850;28;20040;-67
2022/08/30 11:26:50;;;;;;;8.18;1.92;;;31.80;65.10;;;;;;5052255;28;20021;-68
2022/08/30 11:29:37;;;;;;;4.68;1.50;;;31.80;65.40;;;;;;5051369;28;20348;-66
2022/08/30 11:32:12;;;;;;;5.38;1.98;;;31.70;65.30;;;;;;5051939;28;20447;-67
2022/08/30 11:34:46;;;;;;;4.78;1.90;;;31.90;65.00;;;;;;5051520;28;20025;-67
2022/08/30 11:37:37;;;;;;;3.20;1.80;;;32.00;64.80;;;;;;5051630;28;20083;-69
2022/08/30 11:40:07;;;;;;;3.33;1.85;;;32.20;65.10;;;;;;5052018;28;20021;-67
2022/08/30 11:42:40;;;;;;;2.72;1.45;;;32.40;64.50;;;;;;5052129;28;20082;-69
2022/08/30 11:45:23;;;;;;;5.72;2.00;;;32.80;64.40;;;;;;5051142;28;20033;-68
2022/08/30 11:48:09;;;;;;;5.13;1.70;;;33.00;64.20;;;;;;5058986;28;20039;-67
2022/08/30 11:51:01;;;;;;;6.10;1.70;;;32.80;63.80;;;;;;5075304;28;20017;-70
2022/08/30 11:54:02;;;;;;;6.13;1.80;;;32.40;64.90;;;;;;5075507;28;20012;-67
2022/08/30 11:56:34;;;;;;;4.68;1.67;;;32.00;63.50;;;;;;5074542;28;20028;-67
2022/08/30 11:59:24;;;;;;;4.70;1.58;;;31.90;64.40;;;;;;5075681;28;20450;-67
2022/08/30 12:01:51;;;;;;;3.25;1.40;;;31.70;64.70;;;;;;5075907;28;20040;-67
2022/08/30 12:04:16;;;;;;;3.70;1.80;;;31.60;64.50;;;;;;5075328;28;20029;-67
2022/08/30 12:06:48;;;;;;;2.92;1.45;;;31.30;64.40;;;;;;5066596;28;20466;-66
2022/08/30 12:09:22;;;;;;;6.18;1.52;;;30.90;65.20;;;;;;5055369;28;20021;-67
2022/08/30 12:11:58;;;;;;;4.10;1.60;;;30.90;65.40;;;;;;5055335;28;20025;-71
2022/08/30 12:14:43;;;;;;;4.22;1.60;;;31.10;65.30;;;;;;5053851;28;20053;-66
2022/08/30 12:20:18;;;;;;;3.55;1.27;;;30.70;65.00;;;;;;5055936;28;20445;-67
2022/08/30 12:22:44;;;;;;;5.35;1.15;;;30.50;64.90;;;;;;5055281;28;20035;-68
2022/08/30 12:25:32;;;;;;;10.38;2.10;;;30.30;64.70;;;;;;5055727;28;20033;-67
2022/08/30 12:28:12;;;;;;;3.55;1.55;;;30.20;64.50;;;;;;5054921;28;20032;-67
2022/08/30 12:30:39;;;;;;;3.90;1.52;;;30.30;65.20;;;;;;5055132;28;20505;-68
2022/08/30 12:33:08;;;;;;;2.70;1.48;;;30.50;65.10;;;;;;5054548;28;20037;-69
2022/08/30 12:35:34;;;;;;;2.22;1.40;;;30.70;65.10;;;;;;5071559;28;20088;-67
2022/08/30 12:38:10;;;;;;;3.50;1.73;;;31.00;64.60;;;;;;5075068;28;20063;-68
2022/08/30 12:40:36;;;;;;;5.88;1.90;;;31.10;64.70;;;;;;5074798;28;20449;-68
2022/08/30 12:43:05;;;;;;;4.93;1.60;;;31.00;65.20;;;;;;5074792;28;20063;-67
2022/08/30 12:45:51;;;;;;;4.00;1.80;;;30.80;66.30;;;;;;5074558;28;20505;-67
2022/08/30 12:48:18;;;;;;;4.03;2.10;;;30.30;67.00;;;;;;5061430;28;20401;-67
2022/08/30 12:50:52;;;;;;;3.53;1.60;;;29.80;67.50;;;;;;5053750;28;20033;-66
2022/08/30 12:53:44;;;;;;;3.70;1.60;;;29.40;67.90;;;;;;5054827;28;20079;-66
2022/08/30 12:56:11;;;;;;;;;;;29.10;67.60;;;;;;5052170;28;20111;-69
2022/08/30 12:58:50;;;;;;;7.97;2.22;;;28.90;68.00;;;;;;5054559;28;19900;-65
2022/08/30 13:01:29;;;;;;;5.18;2.05;;;28.50;68.90;;;;;;5052825;28;20064;-67
2022/08/30 13:04:15;;;;;;;2.33;1.70;;;28.10;69.80;;;;;;5054579;28;20115;-69